Time;durP1;ratioP1;P1;durP2;ratioP2;P2;SDS_P1;SDS_P2;PMS_P1;PMS_P2;Temp;Humidity;BMP_temperature;BMP_pressure;BME280_temperature;BME280_humidity;BME280_pressure;Samples;Min_cycle;Max_cycle;Signal;HPM_P1;HPM_P2
2021/12/19 14:54:01;;;;;;;5.03;1.33;;;10.00;99.90;;;;;;10466386;27;20418;-66
2021/12/19 14:59:04;;;;;;;6.25;1.60;;;10.10;99.90;;;;;;10444136;28;20083;-61
2021/12/19 15:04:08;;;;;;;4.30;1.17;;;10.10;99.90;;;;;;10411761;28;59367;-64
2021/12/19 15:09:16;;;;;;;6.40;1.65;;;10.00;99.90;;;;;;10399616;28;20209;-62
2021/12/19 15:14:17;;;;;;;4.50;1.65;;;10.00;99.90;;;;;;10401491;28;20125;-64
2021/12/19 15:19:18;;;;;;;10.20;1.30;;;10.00;99.90;;;;;;10404427;28;20037;-66
2021/12/19 15:24:19;;;;;;;5.30;1.77;;;10.00;99.90;;;;;;10403173;28;20064;-66
2021/12/19 15:29:20;;;;;;;5.03;1.35;;;10.00;99.90;;;;;;10402261;28;20041;-65
2021/12/19 15:34:20;;;;;;;6.10;1.55;;;10.00;99.90;;;;;;10404914;28;20394;-65
2021/12/19 15:39:21;;;;;;;6.22;1.65;;;10.00;99.90;;;;;;10428095;28;20055;-66
2021/12/19 15:44:22;;;;;;;4.95;1.83;;;10.00;99.90;;;;;;10398194;28;20030;-62
2021/12/19 15:49:24;;;;;;;2.25;1.10;;;10.00;99.90;;;;;;10429858;28;20046;-72
2021/12/19 15:54:29;;;;;;;5.50;1.33;;;9.90;99.90;;;;;;10432737;28;20526;-70
2021/12/19 15:59:32;;;;;;;5.68;1.30;;;10.00;99.90;;;;;;10429149;28;20037;-66
2021/12/19 16:04:32;;;;;;;7.25;1.25;;;10.10;99.90;;;;;;10408545;28;20320;-68
2021/12/19 16:09:34;;;;;;;2.30;1.30;;;9.90;99.90;;;;;;10404991;28;20491;-68
2021/12/19 16:14:35;;;;;;;4.18;1.33;;;9.90;99.90;;;;;;10404988;28;20033;-63
2021/12/19 16:19:36;;;;;;;4.80;1.35;;;9.90;99.90;;;;;;10402823;28;20036;-65
2021/12/19 16:24:37;;;;;;;5.93;1.48;;;9.90;99.90;;;;;;10403453;28;20029;-66
2021/12/19 16:29:38;;;;;;;3.38;1.10;;;9.90;99.90;;;;;;10392965;28;20029;-64
2021/12/19 16:34:38;;;;;;;2.85;1.33;;;9.90;99.90;;;;;;10393714;28;20528;-68
2021/12/19 16:39:40;;;;;;;4.47;1.58;;;9.90;99.90;;;;;;10396278;28;20037;-61
2021/12/19 16:44:41;;;;;;;4.78;1.60;;;9.90;99.90;;;;;;10400393;28;20042;-65
2021/12/19 16:49:43;;;;;;;4.45;1.27;;;9.90;99.90;;;;;;10398155;28;20395;-64
2021/12/19 16:54:45;;;;;;;2.97;1.20;;;9.90;99.90;;;;;;10401794;28;20033;-66
2021/12/19 16:59:46;;;;;;;3.47;1.23;;;9.90;99.90;;;;;;10397382;28;20030;-67
2021/12/19 17:04:47;;;;;;;3.85;1.60;;;9.90;99.90;;;;;;10403631;28;20399;-65
2021/12/19 17:09:48;;;;;;;5.10;1.23;;;9.90;99.90;;;;;;10405732;28;20091;-65
2021/12/19 17:14:49;;;;;;;3.67;1.20;;;9.90;99.90;;;;;;10388633;28;20510;-64
2021/12/19 17:19:51;;;;;;;3.30;1.20;;;9.90;99.90;;;;;;10402798;28;20041;-68
2021/12/19 17:24:51;;;;;;;4.40;1.70;;;9.90;99.90;;;;;;10402797;28;20402;-65
2021/12/19 17:29:52;;;;;;;5.70;1.38;;;9.90;99.90;;;;;;10396874;28;20029;-67
2021/12/19 17:34:53;;;;;;;4.05;1.13;;;9.80;99.90;;;;;;10404247;28;20525;-69
2021/12/19 17:40:01;;;;;;;8.95;2.08;;;9.90;99.90;;;;;;10399237;28;20045;-64
2021/12/19 17:45:03;;;;;;;4.20;1.47;;;9.90;99.90;;;;;;10390912;28;20411;-67
2021/12/19 17:50:04;;;;;;;4.13;1.50;;;9.80;99.90;;;;;;10399898;28;20492;-62
2021/12/19 17:55:05;;;;;;;5.10;1.70;;;9.80;99.90;;;;;;10401784;28;20446;-64
2021/12/19 18:00:08;;;;;;;6.38;1.52;;;9.80;99.90;;;;;;10398404;28;20095;-66
2021/12/19 18:05:11;;;;;;;4.30;1.55;;;9.90;99.90;;;;;;10401238;28;20080;-61
2021/12/19 18:10:17;;;;;;;4.32;1.10;;;9.90;99.90;;;;;;10403062;28;20037;-62
2021/12/19 18:15:19;;;;;;;2.72;1.33;;;9.90;99.90;;;;;;10401539;28;20437;-70
2021/12/19 18:20:23;;;;;;;3.88;1.42;;;9.90;99.90;;;;;;10400371;28;20037;-65
2021/12/19 18:25:24;;;;;;;3.20;1.23;;;10.00;99.90;;;;;;10397310;28;20021;-66
2021/12/19 18:30:26;;;;;;;5.35;1.40;;;10.00;99.90;;;;;;10398367;28;20483;-66
2021/12/19 18:35:30;;;;;;;6.68;1.90;;;10.00;99.90;;;;;;10400709;28;20116;-61
2021/12/19 18:40:34;;;;;;;7.30;1.52;;;10.00;99.90;;;;;;10391955;28;20068;-61
2021/12/19 18:45:38;;;;;;;3.53;1.13;;;10.00;99.90;;;;;;10365661;28;20025;-61
2021/12/19 18:51:05;;;;;;;4.00;1.15;;;10.00;99.90;;;;;;10369696;28;20050;-59
2021/12/19 19:01:14;;;;;;;2.53;1.55;;;10.00;99.90;;;;;;10375318;28;20088;-64
2021/12/19 19:11:24;;;;;;;2.50;1.20;;;10.00;99.90;;;;;;10387309;28;20460;-60
2021/12/19 19:16:25;;;;;;;3.30;1.40;;;10.00;99.90;;;;;;10393766;28;20026;-60
2021/12/19 19:21:26;;;;;;;3.65;1.40;;;10.00;99.90;;;;;;10392401;28;20079;-59
2021/12/19 19:26:26;;;;;;;2.90;1.13;;;10.00;99.90;;;;;;10390213;28;20080;-66
2021/12/19 19:31:27;;;;;;;4.68;1.40;;;10.00;99.90;;;;;;10389314;28;20100;-62
2021/12/19 19:36:29;;;;;;;4.35;1.58;;;10.00;99.90;;;;;;10393784;28;20021;-60
2021/12/19 19:41:41;;;;;;;4.35;1.42;;;10.00;99.90;;;;;;10400244;28;20030;-62
2021/12/19 19:52:04;;;;;;;4.68;1.33;;;10.00;99.90;;;;;;10380585;28;20680;-60
2021/12/19 19:57:05;;;;;;;3.60;1.33;;;9.90;99.90;;;;;;10388299;28;20033;-64
2021/12/19 20:02:09;;;;;;;6.32;1.45;;;10.00;99.90;;;;;;10389788;28;20401;-65
2021/12/19 20:07:11;;;;;;;3.55;1.73;;;10.00;99.90;;;;;;10380384;28;20076;-61
2021/12/19 20:12:12;;;;;;;3.20;1.27;;;10.00;99.90;;;;;;10401127;28;20103;-61
2021/12/19 20:17:14;;;;;;;5.05;1.48;;;10.00;99.90;;;;;;10410682;28;20136;-67
2021/12/19 20:22:17;;;;;;;6.00;1.17;;;10.00;99.90;;;;;;10395561;28;20352;-63
2021/12/19 20:27:18;;;;;;;4.35;1.67;;;10.00;99.90;;;;;;10408587;28;20028;-65
2021/12/19 20:32:19;;;;;;;7.53;1.60;;;10.00;99.90;;;;;;10391475;28;20087;-59
2021/12/19 20:37:20;;;;;;;3.97;1.38;;;10.00;99.90;;;;;;10384863;28;20017;-67
2021/12/19 20:42:21;;;;;;;6.13;1.42;;;10.00;99.90;;;;;;10389391;28;20044;-67
2021/12/19 20:47:22;;;;;;;7.80;1.63;;;10.00;99.90;;;;;;10386133;28;20033;-58
2021/12/19 20:52:22;;;;;;;5.82;1.60;;;10.00;99.90;;;;;;10382925;28;20099;-61
2021/12/19 20:57:23;;;;;;;3.88;1.40;;;9.90;99.90;;;;;;10393073;28;20438;-62
2021/12/19 21:02:24;;;;;;;8.48;1.88;;;9.90;99.90;;;;;;10387041;28;20120;-62
2021/12/19 21:07:25;;;;;;;5.95;1.67;;;9.90;99.90;;;;;;10396130;28;20029;-58
2021/12/19 21:12:40;;;;;;;9.45;1.90;;;9.90;99.90;;;;;;10394881;28;20057;-59
2021/12/19 21:23:08;;;;;;;10.52;1.65;;;9.90;99.90;;;;;;10381585;28;20045;-68
2021/12/19 21:28:09;;;;;;;7.63;1.27;;;9.90;99.90;;;;;;10384616;28;20387;-61
2021/12/19 21:33:10;;;;;;;4.78;1.60;;;9.60;99.90;;;;;;10385266;28;20052;-68
2021/12/19 21:43:30;;;;;;;5.15;1.20;;;9.90;99.90;;;;;;10385861;28;20074;-65
2021/12/19 21:48:31;;;;;;;8.68;1.95;;;9.90;99.90;;;;;;10388844;28;20024;-63
2021/12/19 21:53:32;;;;;;;5.55;1.70;;;9.90;99.90;;;;;;10382232;28;20049;-62
2021/12/19 21:58:33;;;;;;;9.52;2.67;;;9.90;99.90;;;;;;10381757;28;20034;-66
2021/12/19 22:03:34;;;;;;;11.73;2.25;;;9.90;99.90;;;;;;10372803;28;20018;-60
2021/12/19 22:08:35;;;;;;;5.53;1.67;;;9.80;99.90;;;;;;10380738;28;20476;-63
2021/12/19 22:15:25;;;;;;;13.57;2.38;;;9.80;99.90;;;;;;10379096;28;20038;-61
2021/12/19 22:19:13;;;;;;;6.35;1.55;;;9.80;99.90;;;;;;10389020;28;20041;-65
2021/12/19 22:24:14;;;;;;;5.97;1.48;;;9.80;99.90;;;;;;10379347;28;20022;-71
2021/12/19 22:29:14;;;;;;;8.35;2.05;;;9.80;99.90;;;;;;10375685;28;20033;-66
2021/12/19 22:34:15;;;;;;;5.55;1.98;;;9.80;99.90;;;;;;10377039;28;20122;-67
2021/12/19 22:39:16;;;;;;;10.93;2.13;;;9.80;99.90;;;;;;10374638;28;20504;-63
2021/12/19 22:44:17;;;;;;;9.38;1.90;;;9.80;99.90;;;;;;10371205;28;20017;-69
2021/12/19 22:49:18;;;;;;;8.88;1.75;;;9.90;99.90;;;;;;10386499;28;20586;-66
2021/12/19 22:54:19;;;;;;;11.00;2.08;;;9.80;99.90;;;;;;10398339;28;20137;-65
2021/12/19 22:59:20;;;;;;;7.07;1.90;;;9.80;99.90;;;;;;10400489;28;20132;-66
2021/12/19 23:04:21;;;;;;;8.15;2.25;;;9.70;99.90;;;;;;10399513;28;20039;-67
2021/12/19 23:09:23;;;;;;;8.55;1.88;;;9.70;99.90;;;;;;10405640;28;20497;-65
2021/12/19 23:14:30;;;;;;;11.07;2.00;;;9.80;99.90;;;;;;10403316;28;20292;-62
2021/12/19 23:19:31;;;;;;;9.15;2.10;;;9.70;99.90;;;;;;10408811;28;20048;-66
2021/12/19 23:24:31;;;;;;;6.53;2.20;;;9.80;99.90;;;;;;10408274;28;20028;-67
2021/12/19 23:29:32;;;;;;;9.82;2.42;;;9.70;99.90;;;;;;10410767;28;20406;-68
2021/12/19 23:34:33;;;;;;;8.23;1.92;;;9.70;99.90;;;;;;10410321;28;20076;-68
2021/12/19 23:39:47;;;;;;;7.38;1.80;;;9.70;99.90;;;;;;10408630;28;20036;-65
2021/12/19 23:50:08;;;;;;;9.75;2.00;;;9.70;99.90;;;;;;10405097;28;20053;-60
2021/12/19 23:55:11;;;;;;;12.10;2.38;;;9.70;99.90;;;;;;10404834;28;20369;-62
